Time;durP1;ratioP1;P1;durP2;ratioP2;P2;SDS_P1;SDS_P2;PMS_P1;PMS_P2;Temp;Humidity;BMP_temperature;BMP_pressure;BME280_temperature;BME280_humidity;BME280_pressure;Samples;Min_cycle;Max_cycle;Signal;HPM_P1;HPM_P2
2023/08/31 00:01:35;;;;;;;0.13;0.13;;;;;;;14.18;81.23;96713.00;5120957;27;20487;-71
2023/08/31 00:04:04;;;;;;;0.13;0.13;;;;;;;14.13;81.87;96708.34;5127869;27;20501;-71
2023/08/31 00:06:31;;;;;;;0.17;0.17;;;;;;;14.04;81.64;96707.09;5111842;27;20044;-71
2023/08/31 00:08:59;;;;;;;0.20;0.20;;;;;;;14.00;82.42;96711.31;5108535;28;20119;-71
2023/08/31 00:11:26;;;;;;;0.28;0.28;;;;;;;14.00;82.09;96716.69;5104969;28;20640;-71
2023/08/31 00:13:54;;;;;;;0.13;0.13;;;;;;;13.95;82.42;96730.81;5111513;28;20123;-71
2023/08/31 00:16:25;;;;;;;0.10;0.10;;;;;;;13.93;82.60;96718.69;5111334;28;20042;-70
2023/08/31 00:18:54;;;;;;;0.20;0.20;;;;;;;13.95;82.43;96725.44;5112024;28;20122;-71
2023/08/31 00:21:22;;;;;;;0.22;0.22;;;;;;;13.95;81.85;96716.56;5123952;27;20043;-71
2023/08/31 00:23:49;;;;;;;0.13;0.13;;;;;;;13.91;81.26;96721.59;5116682;27;20118;-71
2023/08/31 00:26:17;;;;;;;0.40;0.40;;;;;;;13.88;81.22;96718.59;5100365;28;20530;-71
2023/08/31 00:28:48;;;;;;;0.20;0.20;;;;;;;13.94;81.41;96723.00;5112367;28;20048;-71
2023/08/31 00:31:16;;;;;;;0.20;0.20;;;;;;;13.91;81.82;96721.59;5103578;27;20078;-71
2023/08/31 00:33:45;;;;;;;0.13;0.13;;;;;;;13.86;82.13;96724.19;5098269;28;20092;-71
2023/08/31 00:36:14;;;;;;;0.17;0.17;;;;;;;13.90;82.02;96722.66;5101578;28;20063;-71
2023/08/31 00:38:42;;;;;;;0.20;0.20;;;;;;;13.83;81.88;96724.66;5114529;27;20042;-71
2023/08/31 00:41:10;;;;;;;0.20;0.20;;;;;;;13.96;81.62;96732.44;5100999;27;20116;-71
2023/08/31 00:43:38;;;;;;;0.22;0.22;;;;;;;13.80;82.68;96727.00;5099254;28;20731;-71
2023/08/31 00:46:06;;;;;;;0.20;0.20;;;;;;;13.60;83.65;96730.03;5091205;28;20510;-71
2023/08/31 00:48:34;;;;;;;0.13;0.13;;;;;;;13.63;83.77;96726.09;5109283;28;20039;-71
2023/08/31 00:51:02;;;;;;;0.22;0.22;;;;;;;13.68;84.33;96728.88;5111909;28;20551;-72
2023/08/31 00:53:31;;;;;;;0.15;0.15;;;;;;;13.71;83.56;96726.53;5113913;28;20040;-71
2023/08/31 00:56:00;;;;;;;0.10;0.10;;;;;;;13.51;85.13;96718.03;5093365;28;20036;-73
2023/08/31 00:58:28;;;;;;;0.20;0.20;;;;;;;13.48;85.31;96718.53;5092771;28;20416;-73
2023/08/31 01:01:03;;;;;;;0.10;0.10;;;;;;;13.48;85.15;96719.34;5103228;28;20043;-71
2023/08/31 01:03:38;;;;;;;0.08;0.08;;;;;;;13.52;85.40;96719.69;5105088;28;20032;-71
2023/08/31 01:06:15;;;;;;;0.13;0.13;;;;;;;13.56;85.21;96708.25;5105941;28;20427;-71
2023/08/31 01:08:49;;;;;;;0.22;0.22;;;;;;;13.56;84.83;96716.31;5102797;28;20736;-71
2023/08/31 01:11:22;;;;;;;0.20;0.20;;;;;;;13.62;84.38;96717.22;5089673;28;20127;-71
2023/08/31 01:14:04;;;;;;;0.20;0.20;;;;;;;13.74;83.66;96727.94;5105449;28;20035;-73
2023/08/31 01:16:34;;;;;;;0.22;0.22;;;;;;;13.73;83.79;96727.13;5081995;28;20043;-71
2023/08/31 01:19:05;;;;;;;0.28;0.28;;;;;;;13.63;84.93;96726.09;5087524;28;20047;-71
2023/08/31 01:21:35;;;;;;;0.13;0.13;;;;;;;13.86;83.91;96726.88;5106192;28;20040;-71
2023/08/31 01:24:05;;;;;;;0.13;0.13;;;;;;;13.68;84.57;96727.03;5109929;28;20418;-71
2023/08/31 01:26:33;;;;;;;0.13;0.13;;;;;;;13.70;84.37;96719.56;5110683;28;20065;-72
2023/08/31 01:29:03;;;;;;;0.20;0.20;;;;;;;13.80;83.95;96718.97;5094306;28;20051;-71
2023/08/31 01:31:31;;;;;;;0.20;0.20;;;;;;;13.74;84.34;96714.53;5090798;28;20558;-71
2023/08/31 01:33:58;;;;;;;0.32;0.32;;;;;;;13.63;84.00;96718.03;5094625;22;20481;-67
2023/08/31 01:36:29;;;;;;;0.13;0.13;;;;;;;13.60;84.47;96724.69;5060053;28;20418;-67
2023/08/31 01:39:00;;;;;;;0.15;0.15;;;;;;;13.74;84.10;96733.28;5064715;28;20048;-67
2023/08/31 01:41:31;;;;;;;0.22;0.22;;;;;;;13.79;83.70;96734.25;5061350;28;20076;-67
2023/08/31 01:43:59;;;;;;;0.22;0.22;;;;;;;13.62;84.09;96741.34;5061448;28;20127;-67
2023/08/31 01:46:27;;;;;;;0.13;0.13;;;;;;;13.65;83.99;96745.44;5062183;28;20037;-67
2023/08/31 01:48:55;;;;;;;0.13;0.13;;;;;;;13.64;84.02;96741.94;5066748;28;20048;-67
2023/08/31 01:51:22;;;;;;;0.10;0.10;;;;;;;13.77;83.04;96749.75;5067900;28;20115;-67
2023/08/31 01:53:50;;;;;;;0.20;0.20;;;;;;;13.73;82.96;96761.97;5062631;28;20062;-67
2023/08/31 01:56:18;;;;;;;0.13;0.13;;;;;;;13.71;83.03;96756.03;5070401;28;20070;-67
2023/08/31 01:58:47;;;;;;;0.20;0.20;;;;;;;13.68;82.92;96753.84;5056185;28;20041;-67
2023/08/31 02:01:14;;;;;;;0.25;0.25;;;;;;;13.75;83.05;96762.56;5062946;28;20049;-67
2023/08/31 02:03:42;;;;;;;0.30;0.30;;;;;;;13.68;83.21;96767.25;5072284;28;20132;-67
2023/08/31 02:06:10;;;;;;;0.20;0.20;;;;;;;13.71;83.66;96772.13;5063944;28;20051;-66
2023/08/31 02:08:40;;;;;;;0.20;0.20;;;;;;;13.75;83.22;96772.47;5058033;28;20408;-67
2023/08/31 02:11:07;;;;;;;0.13;0.13;;;;;;;13.68;82.77;96780.66;5058867;28;20515;-67
2023/08/31 02:13:35;;;;;;;0.10;0.10;;;;;;;13.64;83.13;96776.81;5060544;28;20111;-67
2023/08/31 02:16:04;;;;;;;0.20;0.20;;;;;;;13.60;83.59;96784.50;5060148;28;20076;-67
2023/08/31 02:18:32;;;;;;;0.13;0.13;;;;;;;13.60;83.66;96773.75;5061576;28;20052;-67
2023/08/31 02:20:59;;;;;;;0.13;0.13;;;;;;;13.64;83.61;96776.81;5064908;28;20048;-66
2023/08/31 02:23:27;;;;;;;0.10;0.10;;;;;;;13.53;84.11;96780.31;5068261;28;20049;-67
2023/08/31 02:25:55;;;;;;;0.20;0.20;;;;;;;13.37;85.04;96787.19;5069038;28;20497;-67
2023/08/31 02:28:23;;;;;;;0.13;0.13;;;;;;;13.42;84.31;96784.59;5069355;28;20072;-68
2023/08/31 02:30:59;;;;;;;0.20;0.20;;;;;;;13.40;84.54;96788.56;5060748;28;20052;-67
2023/08/31 02:33:31;;;;;;;0.10;0.10;;;;;;;13.26;84.39;96789.84;5065496;28;20051;-67
2023/08/31 02:35:59;;;;;;;0.20;0.20;;;;;;;13.37;83.92;96792.53;5073185;28;20044;-67
2023/08/31 02:38:27;;;;;;;0.13;0.13;;;;;;;13.34;83.53;96793.00;5068960;28;20041;-67
2023/08/31 02:40:55;;;;;;;0.22;0.22;;;;;;;13.21;83.44;96783.31;5068947;28;20064;-67
2023/08/31 02:43:23;;;;;;;0.13;0.13;;;;;;;13.16;84.21;96793.09;5068392;28;20131;-67
2023/08/31 02:45:50;;;;;;;0.20;0.20;;;;;;;13.20;83.88;96795.06;5064460;28;20064;-67
2023/08/31 02:48:18;;;;;;;0.15;0.15;;;;;;;13.19;84.50;96789.94;5067485;28;20040;-67
2023/08/31 02:50:47;;;;;;;0.32;0.32;;;;;;;13.22;84.29;96792.97;5064521;28;20510;-67
2023/08/31 02:53:15;;;;;;;0.22;0.22;;;;;;;13.27;83.67;96800.34;5066286;28;20144;-67
2023/08/31 02:55:43;;;;;;;0.15;0.15;;;;;;;13.27;83.63;96794.16;5063598;28;20549;-67
2023/08/31 02:58:10;;;;;;;0.13;0.13;;;;;;;13.37;83.53;96792.53;5070591;28;20072;-67
2023/08/31 03:00:42;;;;;;;0.30;0.30;;;;;;;13.35;83.31;96791.13;5070484;28;20041;-67
2023/08/31 03:03:10;;;;;;;0.13;0.13;;;;;;;13.28;83.19;96785.91;5064756;28;20041;-68
2023/08/31 03:05:39;;;;;;;0.13;0.13;;;;;;;13.23;83.10;96791.94;5067115;28;20033;-67
2023/08/31 03:08:08;;;;;;;0.30;0.30;;;;;;;13.34;82.59;96790.31;5058616;28;20127;-67
2023/08/31 03:10:36;;;;;;;0.32;0.32;;;;;;;13.33;81.89;96782.50;5066671;28;20083;-67
2023/08/31 03:13:04;;;;;;;0.10;0.10;;;;;;;13.30;82.32;96781.09;5062743;28;20655;-67
2023/08/31 03:15:33;;;;;;;0.20;0.20;;;;;;;13.25;82.43;96783.69;5067871;28;20074;-67
2023/08/31 03:18:01;;;;;;;0.25;0.25;;;;;;;13.22;82.40;96784.94;5069358;28;20090;-67
2023/08/31 03:20:29;;;;;;;0.20;0.20;;;;;;;13.18;82.52;96793.69;5056616;28;20098;-67
2023/08/31 03:22:59;;;;;;;0.20;0.20;;;;;;;13.19;82.65;96797.97;5056668;28;20135;-67
2023/08/31 03:25:29;;;;;;;0.10;0.10;;;;;;;13.22;82.46;96806.38;5061697;28;20478;-67
2023/08/31 03:27:57;;;;;;;0.13;0.13;;;;;;;13.15;81.91;96804.88;5068985;28;20052;-67
2023/08/31 03:30:25;;;;;;;0.15;0.15;;;;;;;13.08;82.19;96807.59;5053809;28;20104;-67
2023/08/31 03:32:53;;;;;;;0.13;0.13;;;;;;;13.03;82.13;96804.81;5057712;28;20037;-67
2023/08/31 03:35:22;;;;;;;0.30;0.30;;;;;;;13.03;82.13;96806.66;5069856;28;20051;-68
2023/08/31 03:37:50;;;;;;;0.10;0.10;;;;;;;12.94;81.72;96802.69;5070687;28;20048;-68
2023/08/31 03:40:19;;;;;;;0.13;0.13;;;;;;;12.91;81.92;96813.84;5060514;28;20063;-68
2023/08/31 03:42:48;;;;;;;0.13;0.13;;;;;;;12.93;81.98;96803.72;5061096;28;20068;-68
2023/08/31 03:45:16;;;;;;;0.20;0.20;;;;;;;12.94;82.02;96808.84;5059322;28;20406;-68
2023/08/31 03:47:44;;;;;;;0.28;0.28;;;;;;;13.02;81.86;96818.41;5066969;28;20529;-66
2023/08/31 03:50:12;;;;;;;0.22;0.22;;;;;;;13.00;81.96;96823.19;5070389;28;20556;-66
2023/08/31 03:52:39;;;;;;;0.20;0.20;;;;;;;12.97;81.83;96834.38;5061900;28;20033;-67
2023/08/31 03:55:08;;;;;;;0.15;0.15;;;;;;;12.96;82.04;96830.06;5061517;28;20089;-69
2023/08/31 03:57:35;;;;;;;0.25;0.25;;;;;;;12.99;82.26;96832.25;5069301;28;20067;-67
2023/08/31 04:00:14;;;;;;;0.15;0.15;;;;;;;13.01;82.09;96828.31;5056339;28;20093;-66
2023/08/31 04:02:43;;;;;;;0.10;0.10;;;;;;;13.07;81.79;96823.94;5063009;28;20159;-66
2023/08/31 04:05:14;;;;;;;0.30;0.30;;;;;;;13.06;82.18;96822.28;5067708;28;20048;-69
2023/08/31 04:07:44;;;;;;;0.28;0.28;;;;;;;13.07;81.67;96818.56;5059109;28;20091;-66
2023/08/31 04:10:12;;;;;;;0.20;0.20;;;;;;;13.00;81.57;96824.00;5059405;28;20120;-66
2023/08/31 04:12:39;;;;;;;0.13;0.13;;;;;;;13.05;82.00;96826.00;5056950;28;20134;-67
2023/08/31 04:15:09;;;;;;;0.15;0.15;;;;;;;13.05;81.98;96826.00;5060678;28;20047;-66
2023/08/31 04:17:38;;;;;;;0.13;0.13;;;;;;;13.02;82.56;96835.31;5060409;28;20110;-66
2023/08/31 04:20:08;;;;;;;0.22;0.22;;;;;;;13.09;82.25;96849.41;5060384;28;20499;-66
2023/08/31 04:22:36;;;;;;;0.20;0.20;;;;;;;13.03;82.39;96839.63;5061639;28;20048;-66
2023/08/31 04:25:04;;;;;;;0.13;0.13;;;;;;;12.99;82.38;96851.84;5059597;28;20047;-66
2023/08/31 04:27:32;;;;;;;0.08;0.08;;;;;;;12.96;82.64;96854.16;5063738;28;20406;-69
2023/08/31 04:30:00;;;;;;;0.25;0.25;;;;;;;12.95;82.84;96849.84;5061634;28;20142;-66
2023/08/31 04:32:27;;;;;;;0.13;0.13;;;;;;;12.93;82.15;96855.44;5063129;28;20068;-69
2023/08/31 04:34:56;;;;;;;0.20;0.20;;;;;;;12.85;82.78;96855.75;5062649;28;20248;-66
2023/08/31 04:37:24;;;;;;;0.13;0.13;;;;;;;12.87;83.06;96859.03;5063208;28;20123;-68
2023/08/31 04:39:52;;;;;;;0.25;0.25;;;;;;;12.82;83.39;96873.09;5061165;28;20136;-66
2023/08/31 04:42:20;;;;;;;0.10;0.10;;;;;;;12.77;84.07;96877.50;5062640;28;20040;-66
2023/08/31 04:44:48;;;;;;;0.22;0.22;;;;;;;12.78;83.43;96879.94;5061588;28;20499;-66
2023/08/31 04:47:15;;;;;;;0.10;0.10;;;;;;;12.74;83.75;96894.84;5060901;28;20071;-69
2023/08/31 04:49:43;;;;;;;0.13;0.13;;;;;;;12.72;83.56;96880.84;5059033;28;20064;-66
2023/08/31 04:52:13;;;;;;;0.22;0.22;;;;;;;12.76;83.46;96881.22;5060819;28;20044;-66
2023/08/31 04:54:40;;;;;;;0.20;0.20;;;;;;;12.68;83.26;96893.03;5060464;28;20068;-66
2023/08/31 04:57:08;;;;;;;0.28;0.28;;;;;;;12.65;83.20;96890.00;5058528;28;20041;-69
2023/08/31 04:59:36;;;;;;;0.22;0.22;;;;;;;12.72;82.89;96896.91;5058488;28;20052;-66
2023/08/31 05:02:04;;;;;;;0.20;0.20;;;;;;;12.68;82.72;96894.91;5060624;28;20037;-69
2023/08/31 05:04:32;;;;;;;0.13;0.13;;;;;;;12.65;82.68;96898.88;5061036;28;20476;-69
2023/08/31 05:06:59;;;;;;;0.03;0.03;;;;;;;12.67;83.14;96903.97;5062068;28;20055;-68
2023/08/31 05:09:32;;;;;;;0.32;0.32;;;;;;;12.71;82.99;96906.00;5061471;28;20037;-67
2023/08/31 05:11:59;;;;;;;0.25;0.25;;;;;;;12.74;83.09;96894.84;5061823;28;20040;-67
2023/08/31 05:14:27;;;;;;;0.20;0.20;;;;;;;12.83;82.69;96906.06;5059776;28;20115;-67
2023/08/31 05:16:55;;;;;;;0.20;0.20;;;;;;;12.85;82.40;96907.47;5059606;28;20037;-69
2023/08/31 05:19:23;;;;;;;0.28;0.28;;;;;;;12.93;82.40;96919.72;5060529;28;20041;-67
2023/08/31 05:21:52;;;;;;;0.20;0.20;;;;;;;12.89;81.62;96918.53;5060476;28;20041;-66
2023/08/31 05:24:19;;;;;;;0.22;0.22;;;;;;;12.86;81.93;96927.03;5059394;28;20060;-66
2023/08/31 05:26:49;;;;;;;0.20;0.20;;;;;;;12.85;81.94;96938.78;5059075;28;20079;-67
2023/08/31 05:29:17;;;;;;;0.20;0.20;;;;;;;12.82;82.00;96945.41;5063235;28;20062;-67
2023/08/31 05:31:44;;;;;;;0.20;0.20;;;;;;;12.77;82.29;96942.56;5064850;28;20723;-67
2023/08/31 05:34:17;;;;;;;0.30;0.30;;;;;;;12.69;82.75;96945.56;5062404;28;20041;-67
2023/08/31 05:36:44;;;;;;;0.22;0.22;;;;;;;12.60;82.53;96946.91;5064282;28;20050;-67
2023/08/31 05:39:12;;;;;;;0.20;0.20;;;;;;;12.61;83.00;96955.75;5063382;28;20047;-67
2023/08/31 05:41:41;;;;;;;0.13;0.13;;;;;;;12.60;82.84;96946.09;5063245;28;20037;-69
2023/08/31 05:44:10;;;;;;;0.25;0.25;;;;;;;12.53;83.23;96950.69;5064374;28;20450;-68
2023/08/31 05:46:39;;;;;;;0.20;0.20;;;;;;;12.64;83.10;96961.50;5063385;28;20044;-68
2023/08/31 05:49:07;;;;;;;0.13;0.13;;;;;;;12.69;82.76;96961.63;5063343;28;20055;-68
2023/08/31 05:51:35;;;;;;;0.30;0.30;;;;;;;12.70;82.74;96968.63;5061872;28;20049;-68
2023/08/31 05:54:03;;;;;;;0.30;0.30;;;;;;;12.50;82.74;96965.34;5063872;28;20072;-66
2023/08/31 05:56:31;;;;;;;0.10;0.10;;;;;;;12.40;83.32;96957.81;5064170;28;20116;-66
2023/08/31 05:58:59;;;;;;;0.10;0.10;;;;;;;12.48;83.20;96960.19;5063803;28;20041;-66
2023/08/31 06:01:28;;;;;;;0.40;0.40;;;;;;;12.52;83.38;96970.47;5062154;28;20079;-69
2023/08/31 06:03:55;;;;;;;0.13;0.13;;;;;;;12.53;83.62;96962.22;5061887;28;20051;-69
2023/08/31 06:06:23;;;;;;;0.22;0.22;;;;;;;12.62;83.23;96965.41;5062860;28;20036;-67
2023/08/31 06:08:51;;;;;;;0.25;0.25;;;;;;;12.70;82.38;96965.13;5065279;28;20041;-66
2023/08/31 06:11:18;;;;;;;0.32;0.32;;;;;;;12.65;82.84;96962.31;5065908;28;20124;-67
2023/08/31 06:13:46;;;;;;;0.25;0.25;;;;;;;12.74;82.03;96955.59;5060736;28;20047;-66
2023/08/31 06:16:14;;;;;;;0.22;0.22;;;;;;;12.78;81.62;96968.31;5062901;28;20058;-66
2023/08/31 06:18:43;;;;;;;0.25;0.25;;;;;;;12.87;81.13;96958.94;5061940;28;20040;-67
2023/08/31 06:21:11;;;;;;;0.13;0.13;;;;;;;12.93;81.41;96962.59;5061828;28;20048;-66
2023/08/31 06:23:38;;;;;;;0.25;0.25;;;;;;;12.96;80.42;96961.31;5062918;28;20111;-66
2023/08/31 06:26:06;;;;;;;0.32;0.32;;;;;;;12.97;80.57;96963.78;5063300;28;20059;-67
2023/08/31 06:28:34;;;;;;;0.13;0.13;;;;;;;13.10;78.74;96968.94;5063251;28;20044;-67
2023/08/31 06:31:02;;;;;;;0.13;0.13;;;;;;;13.14;78.90;96972.03;5062300;28;20044;-67
2023/08/31 06:33:30;;;;;;;0.25;0.25;;;;;;;13.21;79.01;96965.53;5063491;28;20048;-67
2023/08/31 06:35:59;;;;;;;0.22;0.22;;;;;;;13.37;78.13;96966.78;5062786;28;20052;-67
2023/08/31 06:38:26;;;;;;;0.08;0.08;;;;;;;13.38;77.73;96981.00;5061964;28;20053;-67
2023/08/31 06:40:58;;;;;;;0.15;0.15;;;;;;;13.41;78.17;96973.31;5063555;28;20499;-67
2023/08/31 06:43:27;;;;;;;0.13;0.13;;;;;;;13.45;78.49;96981.72;5061769;28;20045;-67
2023/08/31 06:45:55;;;;;;;0.25;0.25;;;;;;;13.56;78.09;96984.44;5062990;28;20044;-67
2023/08/31 06:48:28;;;;;;;0.13;0.13;;;;;;;13.65;77.49;96987.59;5061833;28;20570;-67
2023/08/31 06:50:56;;;;;;;0.30;0.30;;;;;;;13.69;76.72;96987.97;5061113;28;20044;-67
2023/08/31 06:53:25;;;;;;;0.20;0.20;;;;;;;13.70;76.80;96993.13;5060761;28;20072;-68
2023/08/31 06:55:53;;;;;;;0.20;0.20;;;;;;;13.70;76.20;96989.63;5061553;28;20055;-68
2023/08/31 06:58:21;;;;;;;0.08;0.08;;;;;;;13.73;76.82;96991.81;5061204;28;20419;-66
2023/08/31 07:00:49;;;;;;;0.22;0.22;;;;;;;13.77;76.62;96991.16;5064129;28;20044;-67
2023/08/31 07:03:16;;;;;;;0.13;0.13;;;;;;;13.85;76.18;96996.19;5063999;28;20040;-67
2023/08/31 07:05:45;;;;;;;0.10;0.10;;;;;;;13.87;75.18;97002.13;5061820;28;20044;-67
2023/08/31 07:08:12;;;;;;;0.13;0.13;;;;;;;13.91;74.44;96999.81;5061950;28;20045;-67
2023/08/31 07:10:42;;;;;;;0.30;0.30;;;;;;;13.99;73.25;97004.84;5062659;28;20464;-67
2023/08/31 07:13:09;;;;;;;0.10;0.10;;;;;;;13.88;73.16;97001.09;5062377;28;20068;-67
2023/08/31 07:15:38;;;;;;;0.13;0.13;;;;;;;13.87;73.32;97004.81;5062492;28;20499;-67
2023/08/31 07:18:06;;;;;;;0.28;0.28;;;;;;;13.89;72.98;97007.28;5062319;28;20095;-67
2023/08/31 07:20:33;;;;;;;0.13;0.13;;;;;;;13.83;73.62;97013.53;5062250;28;20041;-67
2023/08/31 07:23:01;;;;;;;0.20;0.20;;;;;;;13.85;73.50;97016.81;5061490;28;20044;-67
2023/08/31 07:25:29;;;;;;;0.10;0.10;;;;;;;13.89;73.82;97020.69;5060941;28;20185;-67
2023/08/31 07:27:59;;;;;;;0.25;0.25;;;;;;;13.90;73.39;97023.16;5061808;28;20194;-67
2023/08/31 07:30:26;;;;;;;0.13;0.13;;;;;;;13.96;74.11;97024.91;5062511;28;20048;-68
2023/08/31 07:32:54;;;;;;;0.10;0.10;;;;;;;13.98;73.50;97019.31;5061149;28;20051;-67
2023/08/31 07:35:22;;;;;;;0.30;0.30;;;;;;;14.15;73.51;97031.00;5060347;28;20040;-67
2023/08/31 07:37:50;;;;;;;0.20;0.20;;;;;;;14.18;72.98;97029.72;5062645;28;20395;-67
2023/08/31 07:40:17;;;;;;;0.17;0.17;;;;;;;14.33;73.32;97027.38;5061994;28;20041;-67
2023/08/31 07:42:45;;;;;;;0.08;0.08;;;;;;;14.40;72.61;97028.16;5061764;28;20040;-68
2023/08/31 07:45:14;;;;;;;0.13;0.13;;;;;;;14.41;71.46;97032.47;5061576;28;20044;-67
2023/08/31 07:47:42;;;;;;;0.20;0.20;;;;;;;14.53;70.53;97035.97;5062565;28;20063;-67
2023/08/31 07:50:10;;;;;;;0.13;0.13;;;;;;;14.44;71.09;97037.34;5060354;28;20139;-67
2023/08/31 07:52:39;;;;;;;0.10;0.10;;;;;;;14.67;70.81;97047.28;5061212;28;20078;-67
2023/08/31 07:55:07;;;;;;;0.13;0.13;;;;;;;14.77;68.95;97035.94;5059983;28;20071;-68
2023/08/31 07:57:35;;;;;;;0.10;0.10;;;;;;;14.66;67.95;97034.91;5061465;28;20487;-67
2023/08/31 08:00:03;;;;;;;0.20;0.20;;;;;;;14.66;68.55;97034.91;5061665;28;20055;-67
2023/08/31 08:02:40;;;;;;;0.22;0.22;;;;;;;14.66;69.13;97032.22;5061877;28;20049;-67
2023/08/31 08:05:09;;;;;;;0.30;0.30;;;;;;;14.63;68.36;97048.81;5059840;28;20033;-67
2023/08/31 08:07:37;;;;;;;0.13;0.13;;;;;;;14.58;68.13;97038.78;5060125;28;20487;-67
2023/08/31 08:10:05;;;;;;;0.35;0.35;;;;;;;14.66;68.33;97046.47;5060335;28;20040;-67
2023/08/31 08:12:38;;;;;;;0.22;0.22;;;;;;;14.77;67.14;97036.78;5060457;28;20049;-68
2023/08/31 08:15:07;;;;;;;0.08;0.08;;;;;;;14.73;67.87;97046.38;5059787;28;20060;-67
2023/08/31 08:17:35;;;;;;;0.22;0.22;;;;;;;14.83;68.27;97054.66;5058501;28;20044;-67
2023/08/31 08:20:06;;;;;;;0.13;0.13;;;;;;;14.99;67.64;97048.56;5058109;28;20044;-67
2023/08/31 08:22:33;;;;;;;0.05;0.05;;;;;;;15.01;67.03;97046.44;5061690;28;20060;-66
2023/08/31 08:25:02;;;;;;;0.25;0.25;;;;;;;14.97;66.52;97056.03;5059186;28;21836;-69
2023/08/31 08:27:31;;;;;;;0.20;0.20;;;;;;;15.05;66.25;97058.34;5060902;28;20555;-66
2023/08/31 08:29:59;;;;;;;0.20;0.20;;;;;;;15.23;66.52;97052.03;5060797;28;20056;-69
2023/08/31 08:32:27;;;;;;;0.22;0.22;;;;;;;15.31;65.85;97058.91;5061475;28;20044;-66
2023/08/31 08:34:54;;;;;;;0.17;0.17;;;;;;;15.14;66.68;97056.13;5061218;28;20510;-66
2023/08/31 08:37:25;;;;;;;0.15;0.15;;;;;;;15.24;66.58;97059.03;5060777;28;20062;-69
2023/08/31 08:39:53;;;;;;;0.05;0.05;;;;;;;15.28;66.44;97064.75;5060738;28;20040;-66
2023/08/31 08:42:25;;;;;;;0.30;0.30;;;;;;;15.37;66.23;97060.63;5061593;28;20422;-66
2023/08/31 08:44:53;;;;;;;0.20;0.20;;;;;;;15.38;65.79;97063.06;5061056;28;20071;-67
2023/08/31 08:47:21;;;;;;;0.22;0.22;;;;;;;15.51;64.93;97062.00;5059718;28;20128;-67
2023/08/31 08:49:48;;;;;;;0.30;0.30;;;;;;;15.59;64.49;97064.31;5060757;28;20053;-67
2023/08/31 08:52:16;;;;;;;0.32;0.32;;;;;;;15.40;63.23;97057.47;5060630;28;20060;-67
2023/08/31 08:54:46;;;;;;;0.13;0.13;;;;;;;15.34;63.92;97053.06;5059920;28;20059;-69
2023/08/31 08:57:13;;;;;;;0.13;0.13;;;;;;;15.31;63.08;97064.28;5064413;28;20048;-69
2023/08/31 08:59:41;;;;;;;0.22;0.22;;;;;;;15.37;63.59;97071.38;5061537;28;20033;-67
2023/08/31 09:02:10;;;;;;;0.30;0.30;;;;;;;15.32;62.86;97069.41;5065834;28;20079;-67
2023/08/31 09:04:37;;;;;;;0.30;0.30;;;;;;;15.33;63.36;97068.38;5063818;28;20049;-67
2023/08/31 09:07:06;;;;;;;0.30;0.30;;;;;;;15.48;63.70;97083.16;5064278;28;20055;-69
2023/08/31 09:09:33;;;;;;;0.10;0.10;;;;;;;15.54;63.33;97074.16;5063863;28;20399;-66
2023/08/31 09:12:09;;;;;;;0.13;0.13;;;;;;;15.57;63.13;97065.66;5062279;28;20044;-66
2023/08/31 09:14:36;;;;;;;0.22;0.22;;;;;;;15.67;63.54;97069.34;5063194;28;20150;-66
2023/08/31 09:17:04;;;;;;;0.10;0.10;;;;;;;15.75;63.32;97068.97;5064088;28;20072;-69
2023/08/31 09:19:32;;;;;;;0.20;0.20;;;;;;;15.64;62.78;97056.38;5062967;28;20048;-66
2023/08/31 09:21:59;;;;;;;0.20;0.20;;;;;;;15.59;63.40;97064.31;5065793;28;20072;-66
2023/08/31 09:24:27;;;;;;;0.15;0.15;;;;;;;15.52;63.79;97068.19;5063910;28;20059;-66
2023/08/31 09:26:56;;;;;;;0.25;0.25;;;;;;;15.47;62.71;97060.81;5064447;28;20054;-66
2023/08/31 09:29:26;;;;;;;0.28;0.28;;;;;;;15.54;62.55;97072.31;5063420;28;20116;-68
2023/08/31 09:31:53;;;;;;;0.22;0.22;;;;;;;15.69;61.84;97063.72;5065218;28;20044;-67
2023/08/31 09:34:33;;;;;;;0.10;0.10;;;;;;;15.88;62.04;97054.41;5068276;28;20043;-69
2023/08/31 09:37:05;;;;;;;0.20;0.20;;;;;;;15.88;61.61;97067.88;5068088;28;20155;-68
2023/08/31 09:39:37;;;;;;;0.32;0.32;;;;;;;15.70;62.49;97071.53;5063629;28;20054;-67
2023/08/31 09:42:05;;;;;;;0.20;0.20;;;;;;;15.62;63.00;97073.81;5064143;28;20079;-67
2023/08/31 09:44:34;;;;;;;0.03;0.03;;;;;;;15.62;63.48;97073.81;5063927;28;20044;-68
2023/08/31 09:47:03;;;;;;;0.10;0.10;;;;;;;15.78;62.54;97071.16;5062618;28;20044;-67
2023/08/31 09:49:33;;;;;;;0.20;0.20;;;;;;;15.94;62.24;97074.16;5063363;28;20076;-67
2023/08/31 09:52:04;;;;;;;0.22;0.22;;;;;;;16.12;60.88;97066.66;5063863;28;20036;-67
2023/08/31 09:54:33;;;;;;;0.10;0.10;;;;;;;16.16;60.17;97064.31;5064639;28;20045;-67
2023/08/31 09:57:03;;;;;;;0.28;0.28;;;;;;;16.34;60.06;97071.34;5064602;28;20049;-67
2023/08/31 09:59:31;;;;;;;0.13;0.13;;;;;;;16.48;59.51;97073.47;5062599;28;20072;-67
2023/08/31 10:02:01;;;;;;;0.00;0.00;;;;;;;16.67;58.81;97068.69;5063838;28;20381;-69
2023/08/31 10:04:32;;;;;;;0.22;0.22;;;;;;;16.60;58.44;97078.78;5062920;28;20045;-67
2023/08/31 10:07:00;;;;;;;0.13;0.13;;;;;;;16.43;59.89;97076.06;5063630;28;20126;-68
2023/08/31 10:09:28;;;;;;;0.20;0.20;;;;;;;16.27;59.00;97071.50;5063503;28;20480;-68
2023/08/31 10:11:56;;;;;;;0.13;0.13;;;;;;;16.12;60.81;97068.53;5062574;28;20055;-67
2023/08/31 10:14:24;;;;;;;0.20;0.20;;;;;;;16.07;60.07;97077.38;5061680;28;20072;-69
2023/08/31 10:16:53;;;;;;;0.10;0.10;;;;;;;15.94;60.94;97079.53;5063490;28;20423;-68
2023/08/31 10:19:22;;;;;;;0.20;0.20;;;;;;;15.94;61.08;97069.56;5061352;28;20062;-68
2023/08/31 10:21:50;;;;;;;0.22;0.22;;;;;;;16.24;57.91;97080.06;5061833;28;20048;-68
2023/08/31 10:24:18;;;;;;;0.13;0.13;;;;;;;16.81;55.56;97082.66;5061967;28;20049;-68
2023/08/31 10:26:45;;;;;;;0.10;0.10;;;;;;;16.95;53.98;97088.50;5062050;28;20054;-68
2023/08/31 10:29:27;;;;;;;0.13;0.13;;;;;;;16.68;54.73;97097.28;5058796;28;20068;-68
2023/08/31 10:31:55;;;;;;;0.17;0.17;;;;;;;16.77;55.25;97095.78;5060101;28;20037;-68
2023/08/31 10:34:37;;;;;;;0.28;0.28;;;;;;;17.16;54.90;97091.22;5063359;28;20124;-68
2023/08/31 10:37:20;;;;;;;0.20;0.20;;;;;;;17.15;55.58;97092.28;5062601;28;20080;-67
2023/08/31 10:39:48;;;;;;;0.10;0.10;;;;;;;17.65;55.08;97088.66;5063480;28;20045;-68
2023/08/31 10:42:15;;;;;;;0.10;0.10;;;;;;;18.09;54.04;97083.19;5064077;28;20106;-67
2023/08/31 10:44:43;;;;;;;0.25;0.25;;;;;;;18.32;54.34;97085.59;5063322;28;20045;-68
2023/08/31 10:47:12;;;;;;;0.30;0.30;;;;;;;18.57;53.17;97074.19;5062461;28;20049;-68
2023/08/31 10:49:51;;;;;;;0.13;0.13;;;;;;;18.11;52.51;97081.06;5061899;28;20041;-68
2023/08/31 10:52:19;;;;;;;0.20;0.20;;;;;;;17.88;53.59;97076.75;5063071;28;20132;-68
2023/08/31 10:54:55;;;;;;;0.13;0.13;;;;;;;18.11;53.99;97081.06;5063164;28;20044;-68
2023/08/31 10:57:30;;;;;;;0.10;0.10;;;;;;;17.62;54.19;97067.53;5061227;28;20052;-68
2023/08/31 10:59:58;;;;;;;0.22;0.22;;;;;;;17.98;53.38;97080.38;5062519;28;20049;-68
2023/08/31 11:02:31;;;;;;;0.22;0.22;;;;;;;18.31;52.02;97070.44;5062171;28;20049;-68
2023/08/31 11:05:07;;;;;;;0.13;0.13;;;;;;;18.36;52.12;97083.19;5062790;28;20083;-69
2023/08/31 11:07:35;;;;;;;0.10;0.10;;;;;;;18.29;50.33;97075.28;5061705;28;20389;-68
2023/08/31 11:10:23;;;;;;;0.22;0.22;;;;;;;18.29;50.30;97067.16;5061228;28;20049;-68
2023/08/31 11:12:54;;;;;;;0.08;0.08;;;;;;;18.01;51.72;97078.25;5061828;28;20450;-68
2023/08/31 11:15:24;;;;;;;0.15;0.15;;;;;;;17.98;52.07;97087.66;5060814;28;20063;-68
2023/08/31 11:17:52;;;;;;;0.13;0.13;;;;;;;17.90;52.47;97078.13;5061385;28;20159;-68
2023/08/31 11:20:23;;;;;;;0.20;0.20;;;;;;;18.12;51.91;97083.50;5062113;28;20070;-68
2023/08/31 11:22:53;;;;;;;0.13;0.13;;;;;;;18.60;50.65;97088.00;5061163;28;20041;-68
2023/08/31 11:25:23;;;;;;;0.22;0.22;;;;;;;18.36;50.94;97072.38;5060048;28;20065;-68
2023/08/31 11:27:54;;;;;;;0.10;0.10;;;;;;;18.15;51.84;97083.00;5062741;28;20098;-68
2023/08/31 11:30:22;;;;;;;0.08;0.08;;;;;;;18.11;52.21;97068.34;5062187;28;20080;-68
2023/08/31 11:32:51;;;;;;;0.10;0.10;;;;;;;17.86;51.08;97074.31;5060996;28;20103;-69
2023/08/31 11:35:20;;;;;;;0.28;0.28;;;;;;;18.20;51.05;97069.53;5061187;28;20041;-68
2023/08/31 11:37:50;;;;;;;0.20;0.20;;;;;;;18.31;50.11;97070.44;5060010;28;20045;-68
2023/08/31 11:40:18;;;;;;;0.10;0.10;;;;;;;18.11;50.03;97062.16;5061944;28;20441;-68
2023/08/31 11:42:46;;;;;;;0.10;0.10;;;;;;;18.39;49.73;97077.25;5061766;28;20400;-68